Time;durP1;ratioP1;P1;durP2;ratioP2;P2;SDS_P1;SDS_P2;PMS_P1;PMS_P2;Temp;Humidity;BMP_temperature;BMP_pressure;BME280_temperature;BME280_humidity;BME280_pressure;Samples;Min_cycle;Max_cycle;Signal;HPM_P1;HPM_P2
2022/11/10 00:02:03;;;;;;;17.67;9.47;;;;;;;5.97;nan;-23983.41;5016704;28;20203;-68
2022/11/10 00:04:29;;;;;;;19.43;11.83;;;;;;;6.02;nan;-23984.97;5012181;28;20262;-68
2022/11/10 00:06:55;;;;;;;22.97;12.03;;;;;;;6.21;nan;-23990.38;5031333;28;20168;-68
2022/11/10 00:09:20;;;;;;;21.20;11.37;;;;;;;6.18;nan;-23989.53;5031335;28;20167;-68
2022/11/10 00:11:45;;;;;;;23.87;11.00;;;;;;;5.76;nan;-23977.59;5031822;28;20615;-68
2022/11/10 00:17:01;;;;;;;25.70;11.00;;;;;;;5.95;nan;-23982.84;5031209;28;20228;-68
2022/11/10 00:19:27;;;;;;;25.87;11.23;;;;;;;6.10;nan;-23987.25;5031596;28;20619;-68
2022/11/10 00:21:53;;;;;;;25.60;11.63;;;;;;;5.92;nan;-23982.16;5031485;28;20670;-68
2022/11/10 00:24:19;;;;;;;21.70;9.60;;;;;;;5.77;nan;-23977.88;5031636;28;20254;-69
2022/11/10 00:26:45;;;;;;;19.87;10.83;;;;;;;6.11;nan;-23987.53;5031374;28;20238;-68
2022/11/10 00:29:10;;;;;;;17.10;9.53;;;;;;;6.02;nan;-23984.84;5031213;28;20643;-67
2022/11/10 00:31:39;;;;;;;20.67;10.67;;;;;;;6.16;nan;-23988.81;5031527;28;20176;-68
2022/11/10 00:34:07;;;;;;;20.63;10.80;;;;;;;5.74;nan;-23977.16;5031874;28;20223;-68
2022/11/10 00:36:34;;;;;;;23.97;12.60;;;;;;;6.12;nan;-23987.69;5031368;28;20225;-68
2022/11/10 00:38:59;;;;;;;22.03;12.23;;;;;;;6.10;nan;-23987.13;5031324;28;20182;-68
2022/11/10 00:41:24;;;;;;;16.90;9.63;;;;;;;5.74;nan;-23977.03;5031428;28;20688;-68
2022/11/10 00:43:50;;;;;;;21.30;10.20;;;;;;;5.66;nan;-23974.75;5031402;28;20237;-68
2022/11/10 00:46:15;;;;;;;23.80;10.87;;;;;;;6.03;nan;-23985.28;5023066;28;20172;-68
2022/11/10 00:48:41;;;;;;;20.70;11.60;;;;;;;5.92;nan;-23982.16;5011125;28;20307;-68
2022/11/10 00:51:06;;;;;;;21.43;11.17;;;;;;;5.94;nan;-23982.56;5010887;28;20212;-68
2022/11/10 00:53:32;;;;;;;22.43;11.50;;;;;;;5.85;nan;-23980.16;5010522;28;20191;-68
2022/11/10 00:55:57;;;;;;;14.33;9.07;;;;;;;5.74;nan;-23977.16;5011024;28;20564;-68
2022/11/10 00:58:23;;;;;;;20.57;11.43;;;;;;;5.90;nan;-23981.56;5011049;28;20176;-68
2022/11/10 01:00:48;;;;;;;16.50;10.43;;;;;;;5.94;nan;-23982.72;5011074;28;20183;-68
2022/11/10 01:03:15;;;;;;;18.27;11.10;;;;;;;5.91;nan;-23981.72;5010334;28;20172;-68
2022/11/10 01:05:41;;;;;;;27.30;12.27;;;;;;;5.63;nan;-23973.91;5011621;28;20230;-68
2022/11/10 01:08:07;;;;;;;21.33;11.10;;;;;;;5.81;nan;-23978.88;5011545;28;20184;-68
2022/11/10 01:10:32;;;;;;;21.57;9.93;;;;;;;5.36;nan;-23966.38;5011557;28;20180;-68
2022/11/10 01:12:58;;;;;;;20.83;10.50;;;;;;;5.67;nan;-23975.03;5011441;28;20187;-68
2022/11/10 01:15:24;;;;;;;16.07;9.13;;;;;;;5.58;nan;-23972.47;5009848;28;20671;-68
2022/11/10 01:17:50;;;;;;;18.10;9.73;;;;;;;5.69;nan;-23975.75;5011219;28;20176;-67
2022/11/10 01:20:16;;;;;;;17.90;11.10;;;;;;;5.57;nan;-23972.34;5011310;28;20184;-67
2022/11/10 01:22:42;;;;;;;14.83;9.33;;;;;;;5.60;nan;-23973.03;5011406;28;20673;-67
2022/11/10 01:25:08;;;;;;;15.17;9.03;;;;;;;5.48;nan;-23969.63;5011238;28;20188;-67
2022/11/10 01:27:34;;;;;;;17.33;8.43;;;;;;;5.71;nan;-23976.16;5011398;28;20227;-67
2022/11/10 01:29:59;;;;;;;17.07;9.00;;;;;;;5.69;nan;-23975.59;5010957;28;20641;-67
2022/11/10 01:32:24;;;;;;;16.97;9.23;;;;;;;5.73;nan;-23976.88;5014130;28;20198;-67
2022/11/10 01:34:50;;;;;;;22.37;10.40;;;;;;;5.62;nan;-23973.63;5014524;28;20180;-67
2022/11/10 01:37:15;;;;;;;17.63;9.30;;;;;;;5.41;nan;-23967.66;5014527;28;20531;-68
2022/11/10 01:39:40;;;;;;;13.97;8.20;;;;;;;5.69;nan;-23975.59;5015188;28;20186;-67
2022/11/10 01:42:06;;;;;;;17.13;9.03;;;;;;;5.44;nan;-23968.50;5014645;28;20667;-67
2022/11/10 01:44:34;;;;;;;15.07;9.20;;;;;;;4.90;nan;-23953.44;5014754;28;20187;-68
2022/11/10 01:46:59;;;;;;;15.40;9.07;;;;;;;5.64;nan;-23974.31;5014347;28;20190;-68
2022/11/10 01:49:27;;;;;;;17.67;9.90;;;;;;;5.59;nan;-23972.75;5014495;28;20172;-68
2022/11/10 01:51:52;;;;;;;15.97;8.07;;;;;;;5.67;nan;-23975.03;5013934;28;20652;-68
2022/11/10 01:54:26;;;;;;;16.00;9.17;;;;;;;5.61;nan;-23973.34;5014306;28;20228;-68
2022/11/10 01:56:56;;;;;;;12.30;8.87;;;;;;;4.46;nan;-23941.03;5014294;28;20184;-68
2022/11/10 01:59:26;;;;;;;19.33;9.40;;;;;;;5.58;nan;-23972.47;5013843;28;20207;-68
2022/11/10 02:01:55;;;;;;;14.17;8.37;;;;;;;5.10;nan;-23959.13;5014532;28;20218;-67
2022/11/10 02:04:21;;;;;;;13.07;8.07;;;;;;;5.12;nan;-23959.53;5014246;28;20610;-68
2022/11/10 02:06:48;;;;;;;17.07;9.73;;;;;;;5.07;nan;-23958.25;5014194;28;20180;-68
2022/11/10 02:09:13;;;;;;;15.60;10.13;;;;;;;5.37;nan;-23966.50;5014090;28;20168;-68
2022/11/10 02:11:41;;;;;;;16.53;8.57;;;;;;;5.39;nan;-23967.22;5013999;28;20191;-67
2022/11/10 02:14:07;;;;;;;16.13;9.17;;;;;;;1.73;nan;-23864.16;5013785;28;20596;-68
2022/11/10 02:16:33;;;;;;;21.87;8.50;;;;;;;5.41;nan;-23967.66;5013881;28;20198;-68
2022/11/10 02:19:12;;;;;;;12.77;7.17;;;;;;;5.31;nan;-23965.09;5014171;28;20555;-68
2022/11/10 02:21:38;;;;;;;15.53;9.47;;;;;;;5.08;nan;-23958.53;5013913;28;20200;-68
2022/11/10 02:24:04;;;;;;;13.10;7.97;;;;;;;5.25;nan;-23963.38;5013652;28;20328;-68
2022/11/10 02:26:30;;;;;;;13.83;8.83;;;;;;;5.26;nan;-23963.53;5013671;28;20706;-68
2022/11/10 02:28:55;;;;;;;14.73;9.13;;;;;;;5.20;nan;-23961.97;5013652;28;20632;-68
2022/11/10 02:31:20;;;;;;;17.10;8.90;;;;;;;4.87;nan;-23952.72;5013719;28;20207;-68
2022/11/10 02:33:47;;;;;;;16.13;8.93;;;;;;;5.28;nan;-23964.22;5013364;28;20203;-68
2022/11/10 02:36:12;;;;;;;13.60;8.87;;;;;;;5.20;nan;-23961.81;5013354;28;20180;-68
2022/11/10 02:38:38;;;;;;;14.90;8.27;;;;;;;4.88;nan;-23952.84;5013531;28;20182;-68
2022/11/10 02:41:04;;;;;;;12.50;7.53;;;;;;;5.19;nan;-23961.53;5011414;28;20204;-67
2022/11/10 02:43:29;;;;;;;17.97;8.07;;;;;;;5.06;nan;-23957.97;5012175;28;20199;-67
2022/11/10 02:45:55;;;;;;;11.47;7.93;;;;;;;4.84;nan;-23951.84;5013350;28;20172;-67
2022/11/10 02:48:20;;;;;;;13.27;7.10;;;;;;;4.74;nan;-23949.00;5013361;28;20250;-67
2022/11/10 02:50:46;;;;;;;10.77;6.57;;;;;;;5.20;nan;-23961.81;5013379;28;20218;-67
2022/11/10 02:53:11;;;;;;;10.90;8.00;;;;;;;5.17;nan;-23961.09;5013251;28;20704;-67
2022/11/10 02:55:37;;;;;;;14.20;7.47;;;;;;;5.07;nan;-23958.25;5013001;28;20176;-67
2022/11/10 02:58:02;;;;;;;11.87;7.30;;;;;;;4.68;nan;-23947.31;5013120;28;20186;-67
2022/11/10 03:00:28;;;;;;;15.20;7.77;;;;;;;5.07;nan;-23958.13;5013081;28;20203;-67
2022/11/10 03:02:57;;;;;;;14.07;8.23;;;;;;;4.65;nan;-23946.31;5013282;28;20634;-67
2022/11/10 03:05:23;;;;;;;12.07;7.00;;;;;;;5.07;nan;-23958.25;5013527;28;20206;-67
2022/11/10 03:07:56;;;;;;;11.57;7.13;;;;;;;5.10;nan;-23959.13;5012992;28;20200;-67
2022/11/10 03:10:23;;;;;;;16.00;8.50;;;;;;;4.70;nan;-23947.88;5012806;28;20172;-67
2022/11/10 03:12:51;;;;;;;15.03;7.93;;;;;;;4.64;nan;-23946.03;5012585;28;20274;-67
2022/11/10 03:15:17;;;;;;;12.53;8.63;;;;;;;5.03;nan;-23957.13;5012897;28;20187;-68
2022/11/10 03:17:42;;;;;;;13.17;7.60;;;;;;;4.97;nan;-23955.41;5012397;28;20164;-67
2022/11/10 03:20:08;;;;;;;12.00;7.30;;;;;;;4.92;nan;-23954.00;5012931;28;20183;-67
2022/11/10 03:22:34;;;;;;;12.73;7.60;;;;;;;4.75;nan;-23949.31;5012245;28;20199;-67
2022/11/10 03:24:59;;;;;;;20.03;8.43;;;;;;;4.50;nan;-23942.03;5012539;28;20172;-67
2022/11/10 03:27:24;;;;;;;14.27;7.13;;;;;;;4.40;nan;-23939.47;5012822;28;20298;-67
2022/11/10 03:29:50;;;;;;;16.37;8.33;;;;;;;4.34;nan;-23937.78;5012096;28;20211;-67
2022/11/10 03:32:15;;;;;;;18.30;9.03;;;;;;;4.35;nan;-23938.06;5012674;28;20620;-67
2022/11/10 03:34:40;;;;;;;14.87;8.23;;;;;;;4.26;nan;-23935.34;5012252;28;20172;-67
2022/11/10 03:37:06;;;;;;;15.47;7.97;;;;;;;4.18;nan;-23933.06;5012215;28;20211;-67
2022/11/10 03:39:31;;;;;;;12.80;7.70;;;;;;;4.14;nan;-23931.94;5012458;28;20184;-68
2022/11/10 03:41:56;;;;;;;18.07;8.03;;;;;;;4.47;nan;-23941.31;5011891;28;20754;-67
2022/11/10 03:44:22;;;;;;;13.93;8.10;;;;;;;4.18;nan;-23933.22;5012461;28;20184;-68
2022/11/10 03:46:47;;;;;;;14.17;7.40;;;;;;;3.93;nan;-23926.09;5012418;28;20179;-68
2022/11/10 03:49:13;;;;;;;9.97;6.33;;;;;;;4.35;nan;-23937.91;5012382;28;20180;-67
2022/11/10 03:51:38;;;;;;;12.13;6.63;;;;;;;4.36;nan;-23938.34;5012222;28;20191;-68
2022/11/10 03:54:03;;;;;;;17.30;7.83;;;;;;;4.22;nan;-23934.34;5011488;28;20183;-68
2022/11/10 03:56:29;;;;;;;14.03;8.07;;;;;;;4.20;nan;-23933.78;5012183;28;20197;-68
2022/11/10 03:58:54;;;;;;;14.47;8.03;;;;;;;4.24;nan;-23934.91;5012142;28;20511;-67
2022/11/10 04:01:20;;;;;;;12.43;7.03;;;;;;;3.88;nan;-23924.81;5012231;28;20199;-67
2022/11/10 04:03:45;;;;;;;12.30;6.93;;;;;;;4.01;nan;-23928.38;5010122;28;20179;-67
2022/11/10 04:08:58;;;;;;;11.67;6.47;;;;;;;4.44;nan;-23940.47;5011365;28;20654;-67
2022/11/10 04:16:52;;;;;;;11.77;7.50;;;;;;;4.09;nan;-23930.50;5011229;28;20179;-67
2022/11/10 04:19:17;;;;;;;13.83;5.40;;;;;;;4.06;nan;-23929.66;5011103;28;20175;-67
2022/11/10 04:21:42;;;;;;;14.10;7.93;;;;;;;3.97;nan;-23927.38;5011318;28;20588;-67
2022/11/10 04:24:08;;;;;;;10.63;6.43;;;;;;;3.50;nan;-23914.13;5015534;28;20695;-68
2022/11/10 04:26:37;;;;;;;9.90;5.27;;;;;;;3.49;nan;-23913.69;5016146;28;20219;-67
2022/11/10 04:29:05;;;;;;;9.43;5.63;;;;;;;3.85;nan;-23923.94;5017063;28;20206;-68
2022/11/10 04:31:32;;;;;;;11.57;6.10;;;;;;;3.78;nan;-23921.97;5016725;28;20267;-68
2022/11/10 04:33:58;;;;;;;10.20;6.03;;;;;;;4.04;nan;-23929.22;5017289;28;20309;-68
2022/11/10 04:36:25;;;;;;;14.30;7.83;;;;;;;3.56;nan;-23915.81;5015961;28;20603;-68
2022/11/10 04:38:51;;;;;;;19.00;6.93;;;;;;;3.76;nan;-23921.25;5017737;28;20195;-68
2022/11/10 04:41:17;;;;;;;13.77;7.53;;;;;;;3.80;nan;-23922.38;5016424;28;20207;-68
2022/11/10 04:43:43;;;;;;;8.70;6.23;;;;;;;4.14;nan;-23931.94;5017137;28;20202;-68
2022/11/10 04:46:29;;;;;;;16.07;6.77;;;;;;;4.00;nan;-23928.22;5017282;28;20294;-68
2022/11/10 04:48:55;;;;;;;10.87;5.97;;;;;;;4.02;nan;-23928.50;5015859;28;20205;-68
2022/11/10 04:51:35;;;;;;;12.70;6.83;;;;;;;4.01;nan;-23928.38;5015800;28;20191;-68
2022/11/10 04:54:01;;;;;;;10.57;6.63;;;;;;;3.53;nan;-23914.84;5016626;28;20179;-68
2022/11/10 04:56:27;;;;;;;13.23;6.33;;;;;;;3.64;nan;-23917.81;5016527;28;20192;-68
2022/11/10 04:58:53;;;;;;;9.83;5.43;;;;;;;4.09;nan;-23930.50;5015434;28;20192;-67
2022/11/10 05:01:22;;;;;;;13.90;7.50;;;;;;;3.80;nan;-23922.53;5015844;28;20207;-67
2022/11/10 05:03:49;;;;;;;10.83;6.60;;;;;;;4.19;nan;-23933.50;5016005;28;20851;-68
2022/11/10 05:06:15;;;;;;;18.53;8.60;;;;;;;3.81;nan;-23922.81;5016281;28;20191;-68
2022/11/10 05:08:42;;;;;;;11.30;6.80;;;;;;;3.74;nan;-23920.81;5020435;28;20184;-68
2022/11/10 05:11:07;;;;;;;10.67;6.10;;;;;;;3.74;nan;-23920.69;5020147;28;20187;-67
2022/11/10 05:13:33;;;;;;;7.57;5.77;;;;;;;3.72;nan;-23920.09;5021612;28;20226;-69
2022/11/10 05:15:59;;;;;;;14.33;8.03;;;;;;;3.96;nan;-23927.09;5019024;28;20188;-68
2022/11/10 05:18:24;;;;;;;13.20;6.60;;;;;;;3.39;nan;-23910.84;5020141;28;20191;-68
2022/11/10 05:20:52;;;;;;;10.17;5.97;;;;;;;4.06;nan;-23929.66;5019302;28;20183;-67
2022/11/10 05:26:05;;;;;;;10.97;6.00;;;;;;;4.19;nan;-23933.50;5022302;28;20238;-69
2022/11/10 05:28:31;;;;;;;12.73;7.60;;;;;;;3.81;nan;-23922.81;5026778;28;20187;-68
2022/11/10 05:30:56;;;;;;;12.83;7.47;;;;;;;4.15;nan;-23932.22;5017415;28;20187;-67
2022/11/10 05:33:22;;;;;;;20.10;6.97;;;;;;;4.20;nan;-23933.78;5034363;28;20245;-66
2022/11/10 05:35:48;;;;;;;10.87;7.17;;;;;;;4.21;nan;-23933.94;5026296;28;20576;-67
2022/11/10 05:38:14;;;;;;;8.87;5.63;;;;;;;4.08;nan;-23930.22;5014547;28;20176;-66
2022/11/10 05:40:39;;;;;;;10.87;6.97;;;;;;;4.27;nan;-23935.63;5014436;28;20499;-67
2022/11/10 05:43:05;;;;;;;11.57;6.43;;;;;;;3.85;nan;-23923.94;5014204;28;20265;-66
2022/11/10 05:45:30;;;;;;;12.60;6.77;;;;;;;3.73;nan;-23920.53;5014297;28;20180;-68
2022/11/10 05:47:56;;;;;;;14.10;7.87;;;;;;;4.34;nan;-23937.63;5012980;28;20212;-67
2022/11/10 05:50:22;;;;;;;10.17;5.83;;;;;;;4.17;nan;-23932.94;5013955;28;20192;-67
2022/11/10 05:52:50;;;;;;;15.80;6.07;;;;;;;3.77;nan;-23921.69;5011636;28;20234;-68
2022/11/10 05:55:19;;;;;;;14.30;8.30;;;;;;;3.75;nan;-23920.97;5025162;28;20183;-67
2022/11/10 05:57:46;;;;;;;12.83;7.07;;;;;;;3.96;nan;-23926.94;5033589;28;20171;-68
2022/11/10 06:00:13;;;;;;;15.37;7.70;;;;;;;4.26;nan;-23935.50;5033921;28;20252;-68
2022/11/10 06:02:39;;;;;;;11.80;6.80;;;;;;;4.53;nan;-23942.91;5033601;28;20207;-68
2022/11/10 06:05:06;;;;;;;8.67;6.17;;;;;;;4.42;nan;-23940.03;5031636;28;20244;-68
2022/11/10 06:07:31;;;;;;;15.87;7.60;;;;;;;4.45;nan;-23940.75;5033548;28;20175;-67
2022/11/10 06:09:56;;;;;;;9.97;6.83;;;;;;;4.56;nan;-23943.75;5033112;28;20175;-68
2022/11/10 06:12:23;;;;;;;19.07;8.13;;;;;;;4.72;nan;-23948.44;5033302;28;20643;-68
2022/11/10 06:14:50;;;;;;;15.90;7.33;;;;;;;4.42;nan;-23939.91;5033156;28;20314;-68
2022/11/10 06:17:16;;;;;;;14.20;9.37;;;;;;;4.40;nan;-23939.47;5032811;28;20658;-68
2022/11/10 06:19:42;;;;;;;13.17;8.10;;;;;;;4.63;nan;-23945.88;5033466;28;20186;-68
2022/11/10 06:22:08;;;;;;;14.63;8.67;;;;;;;4.68;nan;-23947.16;5033005;28;20202;-68
2022/11/10 06:24:33;;;;;;;17.13;9.30;;;;;;;4.78;nan;-23950.00;5029766;28;20275;-68
2022/11/10 06:26:58;;;;;;;14.77;7.93;;;;;;;4.76;nan;-23949.59;5024288;28;20227;-68
2022/11/10 06:29:24;;;;;;;16.17;8.83;;;;;;;5.19;nan;-23961.53;5022366;28;20191;-68
2022/11/10 06:31:49;;;;;;;12.57;8.10;;;;;;;4.96;nan;-23955.13;5013098;28;20552;-68
2022/11/10 06:34:15;;;;;;;12.43;8.37;;;;;;;5.35;nan;-23966.09;5028110;28;20207;-68
2022/11/10 06:36:41;;;;;;;15.63;8.80;;;;;;;4.99;nan;-23956.00;5026103;28;21493;-68
2022/11/10 06:39:06;;;;;;;12.87;7.13;;;;;;;5.36;nan;-23966.38;5028182;28;20654;-68
2022/11/10 06:41:32;;;;;;;15.27;7.73;;;;;;;5.16;nan;-23960.81;5012764;28;20196;-68
2022/11/10 06:43:58;;;;;;;14.57;7.73;;;;;;;5.65;nan;-23974.47;5013200;28;20540;-67
2022/11/10 06:46:24;;;;;;;20.67;9.67;;;;;;;5.43;nan;-23968.34;5013053;28;20180;-68
2022/11/10 06:48:50;;;;;;;11.70;8.10;;;;;;;5.87;nan;-23980.72;5012909;28;20644;-69
2022/11/10 06:51:15;;;;;;;16.50;9.20;;;;;;;6.19;nan;-23989.81;5012873;28;20176;-68
2022/11/10 06:53:41;;;;;;;14.63;8.53;;;;;;;5.85;nan;-23980.00;5012835;28;20577;-69
2022/11/10 06:56:06;;;;;;;22.13;8.63;;;;;;;6.35;nan;-23994.06;5012960;28;20242;-68
2022/11/10 06:58:32;;;;;;;17.20;7.57;;;;;;;5.72;nan;-23976.47;5012451;28;20211;-68
2022/11/10 07:01:00;;;;;;;12.10;7.87;;;;;;;5.65;nan;-23974.47;5012614;28;20673;-68
2022/11/10 07:03:26;;;;;;;11.87;7.67;;;;;;;2.79;nan;-23893.88;5011993;28;20191;-69
2022/11/10 07:05:52;;;;;;;15.30;8.30;;;;;;;6.15;nan;-23988.69;5011924;28;20211;-68
2022/11/10 07:08:18;;;;;;;11.57;7.47;;;;;;;6.24;nan;-23990.94;5012814;28;20176;-67
2022/11/10 07:10:50;;;;;;;16.70;8.20;;;;;;;6.38;nan;-23994.94;5014793;28;20660;-68
2022/11/10 07:13:15;;;;;;;16.00;8.37;;;;;;;6.60;nan;-24001.31;5023034;28;20175;-68
2022/11/10 07:15:41;;;;;;;16.30;8.13;;;;;;;6.81;nan;-24007.00;5021462;28;20176;-68
2022/11/10 07:18:07;;;;;;;20.03;8.60;;;;;;;7.15;nan;-24016.50;5012072;28;20187;-68
2022/11/10 07:20:33;;;;;;;14.97;8.27;;;;;;;6.82;nan;-24007.28;5010757;28;20223;-68
2022/11/10 07:23:04;;;;;;;17.07;9.20;;;;;;;6.44;nan;-23996.63;5012078;28;20199;-68
2022/11/10 07:25:32;;;;;;;16.13;8.23;;;;;;;7.30;nan;-24020.75;5011992;28;20726;-70
2022/11/10 07:27:59;;;;;;;23.00;9.50;;;;;;;7.40;nan;-24023.59;5010909;28;20302;-68
2022/11/10 07:30:26;;;;;;;18.70;10.07;;;;;;;7.74;nan;-24033.22;5011671;28;20263;-69
2022/11/10 07:33:17;;;;;;;17.53;9.03;;;;;;;7.77;nan;-24033.94;5012921;28;20179;-68
2022/11/10 07:35:43;;;;;;;22.37;11.40;;;;;;;7.89;nan;-24037.31;5011593;28;20203;-68
2022/11/10 07:38:10;;;;;;;23.07;9.93;;;;;;;7.65;nan;-24030.53;5012548;28;20172;-68
2022/11/10 07:40:37;;;;;;;21.23;10.40;;;;;;;7.50;nan;-24026.56;5012974;28;20180;-67
2022/11/10 07:43:03;;;;;;;19.00;9.27;;;;;;;8.08;nan;-24042.56;5011989;28;20199;-69
2022/11/10 07:45:30;;;;;;;23.63;9.60;;;;;;;8.36;nan;-24050.66;5012280;28;20180;-68
2022/11/10 07:48:04;;;;;;;20.00;9.87;;;;;;;7.96;nan;-24039.44;5012441;28;20238;-68
2022/11/10 07:50:30;;;;;;;23.60;10.13;;;;;;;8.03;nan;-24041.16;5012566;28;20673;-68
2022/11/10 07:53:10;;;;;;;24.23;11.33;;;;;;;8.08;nan;-24042.56;5011981;28;20231;-68
2022/11/10 07:55:37;;;;;;;20.70;10.40;;;;;;;7.91;nan;-24038.03;5012310;28;20548;-68
2022/11/10 07:58:03;;;;;;;27.03;10.93;;;;;;;8.28;nan;-24048.38;5012236;28;20211;-68
2022/11/10 08:00:29;;;;;;;23.77;10.43;;;;;;;8.38;nan;-24051.06;5012111;28;20277;-70
2022/11/10 08:03:03;;;;;;;24.53;10.87;;;;;;;8.15;nan;-24044.56;5012355;28;20203;-68
2022/11/10 08:05:30;;;;;;;22.10;11.37;;;;;;;8.31;nan;-24049.22;5012226;28;20190;-68
2022/11/10 08:07:55;;;;;;;25.70;11.70;;;;;;;8.54;nan;-24055.47;5011902;28;20238;-67
2022/11/10 08:10:20;;;;;;;26.97;12.23;;;;;;;8.90;nan;-24065.50;5012097;28;20180;-70
2022/11/10 08:12:52;;;;;;;23.63;12.70;;;;;;;8.91;nan;-24065.78;5012508;28;20267;-69
2022/11/10 08:15:18;;;;;;;22.50;11.53;;;;;;;9.38;nan;-24079.06;5012359;28;20191;-69
2022/11/10 08:17:43;;;;;;;22.13;11.93;;;;;;;9.41;nan;-24079.91;5011985;28;20184;-69
2022/11/10 08:20:09;;;;;;;26.25;12.40;;;;;;;9.93;nan;-24094.34;5012096;28;20259;-68
2022/11/10 08:22:34;;;;;;;26.13;12.27;;;;;;;9.77;nan;-24089.94;5019740;28;20576;-68
2022/11/10 08:25:00;;;;;;;24.42;11.93;;;;;;;10.11;nan;-24099.41;5028944;28;20175;-70
2022/11/10 08:27:25;;;;;;;30.95;13.80;;;;;;;10.37;nan;-24106.75;5011745;28;20243;-68
2022/11/10 08:29:50;;;;;;;29.23;13.88;;;;;;;10.14;nan;-24100.25;5010891;28;20259;-69
2022/11/10 08:32:16;;;;;;;32.88;14.13;;;;;;;9.82;nan;-24091.38;5010994;28;20303;-69
2022/11/10 08:34:41;;;;;;;23.25;12.45;;;;;;;10.34;nan;-24105.91;5010480;28;20202;-69
2022/11/10 08:37:06;;;;;;;23.77;11.95;;;;;;;10.39;nan;-24107.19;5011098;28;20172;-69
2022/11/10 08:39:32;;;;;;;23.17;12.70;;;;;;;10.28;nan;-24104.22;5011343;28;20628;-68
2022/11/10 08:41:57;;;;;;;28.85;11.85;;;;;;;10.21;nan;-24102.25;5014017;28;20208;-69
2022/11/10 08:44:23;;;;;;;30.50;13.05;;;;;;;10.40;nan;-24107.47;5014888;28;20190;-69
2022/11/10 08:46:49;;;;;;;25.83;12.70;;;;;;;10.33;nan;-24105.50;5014802;28;20176;-69
2022/11/10 08:49:15;;;;;;;23.63;11.43;;;;;;;10.92;nan;-24122.00;5015055;28;20172;-70
2022/11/10 08:51:40;;;;;;;28.67;12.48;;;;;;;11.19;nan;-24129.59;5014762;28;20670;-69
2022/11/10 08:54:05;;;;;;;25.20;12.05;;;;;;;10.83;nan;-24119.59;5014416;28;20164;-70
2022/11/10 08:56:31;;;;;;;30.63;12.48;;;;;;;11.40;nan;-24135.53;5014744;28;20176;-71
2022/11/10 08:58:56;;;;;;;25.90;13.80;;;;;;;11.30;nan;-24132.56;5015055;28;20191;-68
2022/11/10 09:01:22;;;;;;;22.60;11.18;;;;;;;11.66;nan;-24142.56;5013222;28;20199;-69
2022/11/10 09:03:47;;;;;;;25.55;12.07;;;;;;;11.70;nan;-24143.69;5014905;28;20263;-68
2022/11/10 09:06:12;;;;;;;23.88;11.45;;;;;;;11.93;nan;-24150.19;5014376;28;20548;-68
2022/11/10 09:08:38;;;;;;;23.60;11.68;;;;;;;12.01;nan;-24152.28;5014761;28;20176;-68
2022/11/10 09:11:03;;;;;;;33.08;12.50;;;;;;;11.83;nan;-24147.38;5015045;28;20623;-69
2022/11/10 09:13:29;;;;;;;28.00;12.35;;;;;;;12.18;nan;-24157.09;5014950;28;20178;-68
2022/11/10 09:15:58;;;;;;;28.60;11.15;;;;;;;11.78;nan;-24145.97;5013416;28;20172;-68
2022/11/10 09:18:24;;;;;;;24.02;12.00;;;;;;;12.35;nan;-24161.88;5014828;28;20223;-68
2022/11/10 09:20:49;;;;;;;24.98;12.52;;;;;;;12.07;nan;-24154.00;5015240;28;20303;-68
2022/11/10 09:23:17;;;;;;;20.45;9.93;;;;;;;12.46;nan;-24164.97;5014654;28;20208;-68
2022/11/10 09:25:48;;;;;;;29.30;11.48;;;;;;;12.39;nan;-24163.00;5014825;28;20671;-67
2022/11/10 09:28:14;;;;;;;30.17;12.45;;;;;;;12.61;nan;-24169.03;5014994;28;20296;-68
2022/11/10 09:30:40;;;;;;;25.75;11.30;;;;;;;12.68;nan;-24171.00;5015169;28;20755;-68
2022/11/10 09:33:06;;;;;;;28.17;11.13;;;;;;;12.56;nan;-24167.78;5014838;28;20168;-68
2022/11/10 09:35:32;;;;;;;23.40;11.02;;;;;;;12.95;nan;-24178.59;5014633;28;20543;-68
2022/11/10 09:37:57;;;;;;;24.23;11.70;;;;;;;12.75;nan;-24172.97;5014780;28;20199;-68
2022/11/10 09:40:50;;;;;;;28.15;12.38;;;;;;;13.16;nan;-24184.38;5014999;28;20226;-69
2022/11/10 09:43:30;;;;;;;23.80;11.30;;;;;;;13.41;nan;-24191.25;5014185;28;20220;-68
2022/11/10 09:45:59;;;;;;;23.98;10.70;;;;;;;13.25;nan;-24187.03;5014585;28;20184;-68
2022/11/10 09:48:28;;;;;;;25.45;10.85;;;;;;;13.54;nan;-24195.03;5014190;28;20556;-68
2022/11/10 09:50:58;;;;;;;28.02;11.27;;;;;;;13.50;nan;-24193.78;5014108;28;20180;-68
2022/11/10 09:53:30;;;;;;;24.00;11.05;;;;;;;13.56;nan;-24195.47;5013587;28;20187;-69
2022/11/10 09:56:00;;;;;;;26.40;11.18;;;;;;;14.13;nan;-24211.31;5014407;28;20175;-69
2022/11/10 09:58:34;;;;;;;24.92;11.10;;;;;;;14.02;nan;-24208.38;5014642;28;20260;-68
2022/11/10 10:01:33;;;;;;;27.38;11.65;;;;;;;14.62;nan;-24224.94;5014491;28;20174;-69
2022/11/10 10:04:28;;;;;;;25.00;12.38;;;;;;;14.73;nan;-24228.03;5012708;28;20184;-69
2022/11/10 10:07:15;;;;;;;21.67;10.00;;;;;;;14.91;nan;-24233.06;5011209;28;20188;-71
2022/11/10 10:10:01;;;;;;;29.98;11.70;;;;;;;14.82;nan;-24230.53;5013725;28;20168;-69
2022/11/10 10:13:06;;;;;;;27.00;11.75;;;;;;;15.11;nan;-24238.38;5014016;28;20180;-69
2022/11/10 10:15:48;;;;;;;22.88;10.98;;;;;;;14.81;nan;-24230.13;5012443;28;20198;-68
2022/11/10 10:18:30;;;;;;;28.08;11.88;;;;;;;15.08;nan;-24237.53;5014088;28;20273;-68
2022/11/10 10:21:14;;;;;;;20.50;9.68;;;;;;;15.46;nan;-24248.19;5013930;28;20250;-69
2022/11/10 10:23:51;;;;;;;24.02;10.30;;;;;;;15.20;nan;-24240.91;5013468;28;20258;-69
2022/11/10 10:26:22;;;;;;;25.17;9.93;;;;;;;15.16;nan;-24239.78;5015170;28;20246;-69
2022/11/10 10:28:49;;;;;;;17.67;9.27;;;;;;;15.33;nan;-24244.56;5022111;28;20713;-69
2022/11/10 10:31:27;;;;;;;23.10;11.30;;;;;;;15.37;nan;-24245.81;5026129;28;20223;-69
2022/11/10 10:33:53;;;;;;;24.77;10.95;;;;;;;14.74;nan;-24228.31;5032523;28;20246;-69
2022/11/10 10:36:29;;;;;;;19.90;9.73;;;;;;;14.83;nan;-24230.81;5012668;28;20648;-69
2022/11/10 10:39:11;;;;;;;19.90;9.63;;;;;;;14.60;nan;-24224.38;5013410;28;20580;-68
2022/11/10 10:41:37;;;;;;;19.90;9.55;;;;;;;15.02;nan;-24236.00;5012870;28;20195;-71
2022/11/10 10:44:10;;;;;;;19.23;9.63;;;;;;;15.39;nan;-24246.22;5012989;28;20550;-69
2022/11/10 10:47:03;;;;;;;22.38;9.85;;;;;;;15.44;nan;-24247.78;5028496;28;20553;-69
2022/11/10 10:49:32;;;;;;;21.45;10.25;;;;;;;15.38;nan;-24246.09;5011209;28;20191;-69
2022/11/10 10:52:12;;;;;;;21.05;10.23;;;;;;;15.78;nan;-24257.16;5012231;28;20267;-69
2022/11/10 10:54:39;;;;;;;23.20;10.68;;;;;;;15.54;nan;-24250.31;5012488;28;20176;-69
2022/11/10 10:57:28;;;;;;;22.08;9.98;;;;;;;15.93;nan;-24261.22;5012885;28;20271;-68
2022/11/10 11:00:18;;;;;;;23.73;10.98;;;;;;;15.84;nan;-24258.69;5011977;28;20207;-68
2022/11/10 11:02:59;;;;;;;18.33;9.13;;;;;;;16.18;nan;-24268.06;5012854;28;20634;-68
2022/11/10 11:05:25;;;;;;;28.88;10.93;;;;;;;16.51;nan;-24277.16;5027234;28;20528;-68
2022/11/10 11:07:58;;;;;;;21.60;10.00;;;;;;;16.55;nan;-24278.28;5013175;28;20222;-69
2022/11/10 11:10:25;;;;;;;20.10;9.43;;;;;;;16.38;nan;-24273.66;5012726;28;20259;-68
2022/11/10 11:12:51;;;;;;;16.48;9.32;;;;;;;16.52;nan;-24277.56;5012415;28;20734;-68
2022/11/10 11:15:21;;;;;;;19.05;8.60;;;;;;;16.77;nan;-24284.56;5012810;28;20203;-68
2022/11/10 11:17:58;;;;;;;21.40;9.35;;;;;;;16.51;nan;-24277.28;5019605;28;20203;-68
2022/11/10 11:20:31;;;;;;;20.02;9.13;;;;;;;16.26;nan;-24270.44;5017524;28;20237;-68
2022/11/10 11:23:05;;;;;;;13.45;7.35;;;;;;;15.37;nan;-24245.66;5011107;28;20204;-69
2022/11/10 11:25:33;;;;;;;17.52;8.25;;;;;;;15.95;nan;-24261.63;5010217;28;20168;-67
2022/11/10 11:28:19;;;;;;;20.55;8.48;;;;;;;16.00;nan;-24263.16;5009954;28;20278;-68
2022/11/10 11:31:18;;;;;;;19.10;9.93;;;;;;;16.51;nan;-24277.28;5012042;28;20176;-68
2022/11/10 11:33:50;;;;;;;19.63;8.77;;;;;;;16.57;nan;-24278.97;5012360;28;20172;-69
2022/11/10 11:36:40;;;;;;;17.02;9.40;;;;;;;16.33;nan;-24272.41;5012144;28;20196;-68
2022/11/10 11:39:33;;;;;;;19.60;8.25;;;;;;;16.85;nan;-24286.50;5011090;28;20164;-68
2022/11/10 11:42:36;;;;;;;16.98;7.88;;;;;;;17.06;nan;-24292.53;5011985;28;20204;-69
2022/11/10 11:45:44;;;;;;;18.35;10.10;;;;;;;17.16;nan;-24295.16;5012420;28;20202;-69
2022/11/10 11:48:40;;;;;;;20.60;8.80;;;;;;;17.07;nan;-24292.66;5011307;28;20172;-69
2022/11/10 11:51:12;;;;;;;16.23;8.45;;;;;;;17.20;nan;-24296.44;5010742;28;20616;-68
2022/11/10 11:53:46;;;;;;;17.15;8.82;;;;;;;17.26;nan;-24297.97;5010402;28;20234;-68
2022/11/10 11:56:27;;;;;;;28.15;9.40;;;;;;;17.04;nan;-24291.81;5012003;28;20167;-69
2022/11/10 11:59:37;;;;;;;19.48;8.55;;;;;;;17.12;nan;-24294.06;5011030;28;20176;-69